メインページ
METAR-TAF:

METAR-TAF

空港 :

ジンナー国際空港

カラチ, パキスタン

緯度: 24-54N, 経度: 067-08E, 海抜: 21m

現時点の気象観測

当レポートは31分前の18:55(UTC)に作成
西/南西の風 7kt
気温 27°C
湿度 70%
気圧 1009 hPa
視程: 6000m
高度2000ftの雲は散在している

METAR: OPKC 181855Z 25007KT 6000 SCT020 27/21 Q1009 NOSIG

時間: 00:26 (19:26 UTC)

予報

当レポートは3時間26分前の16:00(UTC)に作成
予報は18日の 18時(UTC)から 19日の 24時(UTC)まで有効
西/南西の風 8kt、最大18ktの突風を伴う
視程: 6000m
高度2000ftの雲は散在している
19日の 01時(UTC)から 19日の 05時(UTC)まで一時的に
西の風 10kt
視程: 5000m
高度2000ftの雲は散在している
煙霧

TAF: OPKC 181600Z 1818/1924 24008G18KT 6000 SCT020 TEMPO 1901/1905 26010KT 5000 HZ SCT020

4,000以上の空港の気象観測と天気予報(METAR報とTAF報)

利用可能な観測所は地図上に黄色い丸と赤い丸で示す。

丸の上にカーソルを重ねると観測所名を参照できる。

次にクリックすると気象観測と天気予報を参照できる。

マップの切り替え:黒色「×」印の緑ボタンをクリックして拡大、「-」印の緑ボタンをクリックして縮小、緑色の三角印をクリックして隣りの地図に切り替え


METAR-TAF: